createdAt,value
2022-09-13T00:02:03.298Z,98501.34
2022-09-13T00:05:04.980Z,98491.94
2022-09-13T00:08:06.882Z,98500.25
2022-09-13T00:11:12.875Z,98489.09
2022-09-13T00:14:14.358Z,98490.03
2022-09-13T00:17:15.862Z,98490.84
2022-09-13T00:20:17.478Z,98487.16
2022-09-13T00:23:19.161Z,98488.59
2022-09-13T00:26:21.618Z,98483.09
2022-09-13T00:29:23.103Z,98488.38
2022-09-13T00:32:24.597Z,98496.81
2022-09-13T00:35:26.082Z,98506.47
2022-09-13T00:38:27.586Z,98481.09
2022-09-13T00:41:29.089Z,98478.53
2022-09-13T00:44:48.819Z,98483.19
2022-09-13T00:48:00.585Z,98465.88
2022-09-13T00:51:02.358Z,98485.41
2022-09-13T00:54:03.933Z,98461.03
2022-09-13T00:57:05.554Z,98454.38
2022-09-13T01:00:14.078Z,98471.69
2022-09-13T01:03:15.803Z,98468.28
2022-09-13T01:06:24.043Z,98470.00
2022-09-13T01:09:25.583Z,98475.84
2022-09-13T01:12:32.818Z,98491.94
2022-09-13T01:15:34.389Z,98492.69
2022-09-13T01:18:35.921Z,98494.72
2022-09-13T01:21:49.697Z,98497.72
2022-09-13T01:24:57.195Z,98508.34
2022-09-13T01:28:17.540Z,98503.56
2022-09-13T01:31:37.642Z,98505.66
2022-09-13T01:34:49.572Z,98501.84
2022-09-13T01:38:11.244Z,98504.81
2022-09-13T01:41:12.720Z,98496.22
2022-09-13T01:44:14.297Z,98490.78
2022-09-13T01:47:15.969Z,98484.47
2022-09-13T01:50:17.524Z,98467.00
2022-09-13T01:53:22.531Z,98477.16
2022-09-13T01:56:28.755Z,98480.09
2022-09-13T01:59:43.550Z,98474.75
2022-09-13T02:02:45.077Z,98488.53
2022-09-13T02:05:56.949Z,98468.53
2022-09-13T02:09:00.958Z,98470.75
2022-09-13T02:12:10.916Z,98472.84
2022-09-13T02:15:14.924Z,98474.41
2022-09-13T02:18:18.270Z,98447.75
2022-09-13T02:21:24.289Z,98461.38
2022-09-13T02:24:36.807Z,98453.47
2022-09-13T02:27:38.300Z,98472.38
2022-09-13T02:30:40.874Z,98459.47
2022-09-13T02:33:44.290Z,98480.44
2022-09-13T02:36:45.905Z,98482.09
2022-09-13T02:39:48.241Z,98484.13
2022-09-13T02:43:00.536Z,98490.84
2022-09-13T02:46:11.198Z,98500.63
2022-09-13T02:49:27.005Z,98497.66
2022-09-13T02:52:28.605Z,98500.69
2022-09-13T02:55:33.658Z,98496.78
2022-09-13T02:58:41.910Z,98501.09
2022-09-13T03:02:03.748Z,98495.47
2022-09-13T03:05:05.570Z,98504.72
2022-09-13T03:08:07.705Z,98508.69
2022-09-13T03:11:12.134Z,98496.44
2022-09-13T03:14:32.393Z,98502.38
2022-09-13T03:17:54.685Z,98499.44
2022-09-13T03:21:28.514Z,98498.69
2022-09-13T03:24:41.985Z,98509.50
2022-09-13T03:27:46.276Z,98514.81
2022-09-13T03:30:50.566Z,98518.03
2022-09-13T03:34:18.445Z,98530.31
2022-09-13T03:37:24.647Z,98523.69
2022-09-13T03:40:28.729Z,98524.19
2022-09-13T03:43:37.249Z,98521.19
2022-09-13T03:46:39.917Z,98533.22
2022-09-13T03:49:41.476Z,98522.38
2022-09-13T03:52:46.400Z,98536.81
2022-09-13T03:55:48.175Z,98551.53
2022-09-13T03:58:50.196Z,98549.75
2022-09-13T04:01:52.399Z,98541.88
2022-09-13T04:04:53.978Z,98544.03
2022-09-13T04:07:55.553Z,98539.72
2022-09-13T04:10:57.142Z,98549.81
2022-09-13T04:13:59.492Z,98550.28
2022-09-13T04:17:01.079Z,98551.94
2022-09-13T04:20:02.895Z,98551.16
2022-09-13T04:23:04.918Z,98545.47
2022-09-13T04:26:06.657Z,98538.75
2022-09-13T04:29:08.246Z,98531.41
2022-09-13T04:32:12.006Z,98524.69
2022-09-13T04:35:13.528Z,98540.97
2022-09-13T04:38:15.086Z,98538.84
2022-09-13T04:41:17.574Z,98538.59
2022-09-13T04:44:20.576Z,98536.50
2022-09-13T04:47:22.643Z,98556.59
2022-09-13T04:50:24.516Z,98550.72
2022-09-13T04:53:26.200Z,98538.44
2022-09-13T04:56:27.794Z,98533.31
2022-09-13T04:59:29.349Z,98531.84
2022-09-13T05:02:30.991Z,98537.44
2022-09-13T05:05:32.652Z,98541.25
2022-09-13T05:08:34.514Z,98549.56
2022-09-13T05:11:36.063Z,98545.59
2022-09-13T05:14:37.646Z,63510.31
2022-09-13T05:17:39.147Z,63510.31
2022-09-13T05:20:40.739Z,63510.31
2022-09-13T05:23:42.314Z,63510.31
2022-09-13T05:26:43.890Z,63510.31
2022-09-13T05:29:45.506Z,76620.22
2022-09-13T05:32:47.050Z,98549.97
2022-09-13T05:35:48.562Z,98551.91
2022-09-13T05:38:58.166Z,98555.34
2022-09-13T05:42:12.335Z,98549.19
2022-09-13T05:45:14.831Z,98551.56
2022-09-13T05:48:16.398Z,98543.00
2022-09-13T05:51:19.118Z,98541.59
2022-09-13T05:54:20.640Z,98547.03
2022-09-13T05:57:22.190Z,98542.25
2022-09-13T06:00:24.025Z,98538.00
2022-09-13T06:03:28.003Z,98548.50
2022-09-13T06:06:29.522Z,98535.13
2022-09-13T06:09:31.114Z,98534.22
2022-09-13T06:12:32.606Z,98527.00
2022-09-13T06:15:34.165Z,98523.19
2022-09-13T06:18:36.081Z,98529.47
2022-09-13T06:21:37.687Z,98524.88
2022-09-13T06:24:39.199Z,98528.13
2022-09-13T06:27:40.899Z,98532.13
2022-09-13T06:30:42.410Z,98529.63
2022-09-13T06:33:43.998Z,98535.97
2022-09-13T06:36:45.556Z,98543.03
2022-09-13T06:39:47.252Z,98539.31
2022-09-13T06:42:48.993Z,98542.22
2022-09-13T06:45:50.762Z,98535.13
2022-09-13T06:49:00.954Z,98544.41
2022-09-13T06:52:02.607Z,98537.91
2022-09-13T06:55:04.433Z,98541.03
2022-09-13T06:58:11.009Z,98539.59
2022-09-13T07:01:12.818Z,98541.34
2022-09-13T07:04:15.606Z,98533.22
2022-09-13T07:07:17.170Z,98533.25
2022-09-13T07:10:18.791Z,98529.78
2022-09-13T07:13:20.940Z,98538.28
2022-09-13T07:16:23.606Z,98544.63
2022-09-13T07:19:28.574Z,98536.81
2022-09-13T07:22:30.241Z,98536.97
2022-09-13T07:25:31.754Z,98543.63
2022-09-13T07:28:35.506Z,98546.78
2022-09-13T07:31:38.270Z,98554.59
2022-09-13T07:34:39.830Z,98565.38
2022-09-13T07:37:42.352Z,98566.19
2022-09-13T07:40:44.767Z,98568.16
2022-09-13T07:43:46.332Z,98566.97
2022-09-13T07:46:48.054Z,98570.75
2022-09-13T07:49:50.599Z,98568.38
2022-09-13T07:52:52.165Z,98566.09
2022-09-13T07:55:53.954Z,98559.44
2022-09-13T07:58:55.689Z,98550.91
2022-09-13T08:01:57.407Z,98551.84
2022-09-13T08:04:59.423Z,98560.16
2022-09-13T08:08:01.170Z,98553.03
2022-09-13T08:11:03.765Z,98540.09
2022-09-13T08:14:05.913Z,98543.09
2022-09-13T08:17:07.506Z,98545.03
2022-09-13T08:20:10.565Z,98559.72
2022-09-13T08:23:12.565Z,98567.84
2022-09-13T08:26:14.270Z,98571.53
2022-09-13T08:29:15.887Z,98573.19
2022-09-13T08:32:17.457Z,98572.28
2022-09-13T08:35:19.090Z,98573.38
2022-09-13T08:38:20.651Z,98575.28
2022-09-13T08:41:22.204Z,98572.75
2022-09-13T08:44:36.674Z,98574.38
2022-09-13T08:47:47.193Z,98564.97
2022-09-13T08:50:48.973Z,98566.25
2022-09-13T08:53:50.549Z,98566.41
2022-09-13T08:56:55.040Z,98560.75
2022-09-13T08:59:59.639Z,98559.69
2022-09-13T09:03:01.189Z,98562.84
2022-09-13T09:06:02.714Z,98569.69
2022-09-13T09:09:08.405Z,98578.50
2022-09-13T09:12:17.854Z,98578.50
2022-09-13T09:15:19.483Z,98571.09
2022-09-13T09:18:23.646Z,98570.31
2022-09-13T09:21:25.191Z,98569.22
2022-09-13T09:24:26.734Z,98575.81
2022-09-13T09:27:29.925Z,98584.50
2022-09-13T09:30:38.227Z,98578.97
2022-09-13T09:33:46.079Z,98571.09
2022-09-13T09:37:00.659Z,98569.13
2022-09-13T09:40:05.503Z,98570.06
2022-09-13T09:43:12.361Z,98568.41
2022-09-13T09:46:15.496Z,98572.09
2022-09-13T09:49:40.343Z,98574.09
2022-09-13T09:52:50.712Z,98580.09
2022-09-13T09:56:12.732Z,98572.81
2022-09-13T09:59:28.386Z,98578.66
2022-09-13T10:02:30.509Z,98570.06
2022-09-13T10:05:34.894Z,98571.75
2022-09-13T10:08:37.481Z,98568.44
2022-09-13T10:11:45.073Z,98570.88
2022-09-13T10:14:46.557Z,98572.09
2022-09-13T10:18:02.300Z,98572.41
2022-09-13T10:21:06.738Z,98563.53
2022-09-13T10:24:19.117Z,98563.81
2022-09-13T10:27:40.020Z,98567.19
2022-09-13T10:30:57.965Z,98577.00
2022-09-13T10:34:00.398Z,98574.28
2022-09-13T10:37:15.286Z,98571.09
2022-09-13T10:40:23.055Z,98570.72
2022-09-13T10:43:24.601Z,98575.34
2022-09-13T10:46:26.683Z,98582.31
2022-09-13T10:49:38.601Z,98574.22
2022-09-13T10:52:44.633Z,98564.22
2022-09-13T10:55:47.038Z,98565.56
2022-09-13T10:58:48.694Z,98565.69
2022-09-13T11:01:50.200Z,98563.22
2022-09-13T11:04:57.658Z,98565.91
2022-09-13T11:08:02.069Z,98566.78
2022-09-13T11:11:21.866Z,98554.00
2022-09-13T11:14:32.534Z,98562.16
2022-09-13T11:17:34.150Z,98560.69
2022-09-13T11:20:48.004Z,98573.56
2022-09-13T11:23:49.685Z,98565.78
2022-09-13T11:26:51.374Z,98556.97
2022-09-13T11:30:04.027Z,98566.41
2022-09-13T11:33:23.922Z,98564.59
2022-09-13T11:36:44.102Z,98564.41
2022-09-13T11:40:06.908Z,98556.94
2022-09-13T11:43:14.562Z,98561.78
2022-09-13T11:46:20.270Z,98560.56
2022-09-13T11:49:25.452Z,98556.16
2022-09-13T11:52:26.988Z,98556.25
2022-09-13T11:55:54.671Z,98542.41
2022-09-13T11:59:01.288Z,98541.13
2022-09-13T12:02:04.500Z,98531.59
2022-09-13T12:05:22.656Z,98543.69
2022-09-13T12:08:29.996Z,98535.38
2022-09-13T12:11:35.286Z,98544.34
2022-09-13T12:14:39.971Z,98538.22
2022-09-13T12:17:45.840Z,98528.69
2022-09-13T12:20:48.526Z,98539.56
2022-09-13T12:23:53.725Z,98540.59
2022-09-13T12:27:06.152Z,98530.50
2022-09-13T12:30:18.119Z,98523.94
2022-09-13T12:33:20.026Z,98524.75
2022-09-13T12:36:28.788Z,98526.03
2022-09-13T12:39:42.658Z,98519.81
2022-09-13T12:42:59.342Z,98523.31
2022-09-13T12:46:00.905Z,98529.50
2022-09-13T12:49:29.068Z,98528.31
2022-09-13T12:52:32.469Z,98521.50
2022-09-13T12:55:57.287Z,98514.31
2022-09-13T12:59:18.592Z,98511.44
2022-09-13T13:02:27.684Z,98513.03
2022-09-13T13:05:31.089Z,98507.19
2022-09-13T13:08:32.760Z,98508.06
2022-09-13T13:11:45.314Z,98498.53
2022-09-13T13:14:47.553Z,98497.13
2022-09-13T13:17:52.775Z,98504.22
2022-09-13T13:20:54.312Z,98503.53
2022-09-13T13:24:14.389Z,98498.91
2022-09-13T13:27:37.030Z,98496.53
2022-09-13T13:30:40.343Z,98493.44
2022-09-13T13:33:48.487Z,98490.44
2022-09-13T13:36:53.670Z,98481.22
2022-09-13T13:40:14.172Z,98482.91
2022-09-13T13:43:26.410Z,98478.16
2022-09-13T13:46:31.876Z,98476.34
2022-09-13T13:49:34.518Z,98483.28
2022-09-13T13:52:37.370Z,98475.00
2022-09-13T13:55:42.002Z,98464.25
2022-09-13T13:58:43.514Z,98457.25
2022-09-13T14:01:46.289Z,98464.66
2022-09-13T14:05:00.036Z,98469.28
2022-09-13T14:08:14.698Z,98456.47
2022-09-13T14:11:42.934Z,98453.25
2022-09-13T14:15:00.556Z,98448.97
2022-09-13T14:18:02.074Z,98443.81
2022-09-13T14:21:05.130Z,98448.38
2022-09-13T14:24:13.037Z,98453.91
2022-09-13T14:27:18.675Z,98441.66
2022-09-13T14:30:22.235Z,98440.09
2022-09-13T14:33:31.440Z,98437.69
2022-09-13T14:36:32.986Z,98429.56
2022-09-13T14:39:34.610Z,98435.81
2022-09-13T14:42:40.038Z,98435.00
2022-09-13T14:45:41.558Z,98434.19
2022-09-13T14:49:09.422Z,98422.09
2022-09-13T14:52:31.258Z,98426.00
2022-09-13T14:55:42.801Z,98422.84
2022-09-13T14:58:45.888Z,98428.38
2022-09-13T15:01:47.494Z,98429.97
2022-09-13T15:04:51.678Z,98423.69
2022-09-13T15:07:53.350Z,98416.72
2022-09-13T15:10:56.835Z,98413.00
2022-09-13T15:14:02.203Z,98407.06
2022-09-13T15:17:06.838Z,98408.75
2022-09-13T15:20:12.110Z,98415.03
2022-09-13T15:23:15.070Z,98411.00
2022-09-13T15:26:20.803Z,98409.84
2022-09-13T15:29:22.383Z,98410.22
2022-09-13T15:32:25.266Z,98406.50
2022-09-13T15:35:27.126Z,98399.75
2022-09-13T15:38:33.583Z,98402.28
2022-09-13T15:41:38.046Z,98409.72
2022-09-13T15:44:42.510Z,98404.19
2022-09-13T15:47:51.397Z,98398.41
2022-09-13T15:51:04.362Z,98394.38
2022-09-13T15:54:09.245Z,98411.84
2022-09-13T15:57:16.538Z,98392.72
2022-09-13T16:00:22.438Z,98399.38
2022-09-13T16:03:24.562Z,98399.97
2022-09-13T16:06:26.981Z,98398.31
2022-09-13T16:09:28.563Z,98395.63
2022-09-13T16:12:30.125Z,98389.22
2022-09-13T16:15:31.679Z,98390.22
2022-09-13T16:18:33.332Z,98384.94
2022-09-13T16:21:36.292Z,98380.19
2022-09-13T16:24:38.136Z,98372.59
2022-09-13T16:27:40.026Z,98375.75
2022-09-13T16:30:41.586Z,98382.38
2022-09-13T16:33:43.576Z,98383.09
2022-09-13T16:36:45.154Z,98386.19
2022-09-13T16:39:46.829Z,98382.38
2022-09-13T16:42:48.432Z,98376.16
2022-09-13T16:45:51.537Z,98382.38
2022-09-13T16:48:54.735Z,98380.81
2022-09-13T16:51:59.447Z,98385.47
2022-09-13T16:55:01.414Z,98392.13
2022-09-13T16:58:03.090Z,98394.72
2022-09-13T17:01:05.717Z,98396.13
2022-09-13T17:04:08.169Z,98389.97
2022-09-13T17:07:09.925Z,98388.06
2022-09-13T17:10:12.742Z,98387.44
2022-09-13T17:13:14.380Z,98396.25
2022-09-13T17:16:27.093Z,98388.50
2022-09-13T17:19:36.818Z,98387.19
2022-09-13T17:22:38.830Z,98387.66
2022-09-13T17:25:41.242Z,98393.75
2022-09-13T17:28:42.793Z,98387.31
2022-09-13T17:31:44.424Z,98383.94
2022-09-13T17:34:46.008Z,98383.34
2022-09-13T17:37:47.585Z,98373.09
2022-09-13T17:40:58.314Z,98377.31
2022-09-13T17:43:59.833Z,98375.66
2022-09-13T17:47:02.389Z,98372.97
2022-09-13T17:50:03.993Z,98379.75
2022-09-13T17:53:05.641Z,98375.47
2022-09-13T17:56:07.677Z,98371.94
2022-09-13T17:59:10.269Z,98379.38
2022-09-13T18:02:12.133Z,98377.28
2022-09-13T18:05:14.022Z,98381.88
2022-09-13T18:08:15.625Z,98373.88
2022-09-13T18:11:22.200Z,98373.69
2022-09-13T18:14:26.553Z,98381.72
2022-09-13T18:17:28.149Z,98386.88
2022-09-13T18:20:29.663Z,98382.13
2022-09-13T18:23:32.568Z,98380.97
2022-09-13T18:26:34.718Z,98379.19
2022-09-13T18:29:36.274Z,98373.22
2022-09-13T18:32:37.782Z,98378.94
2022-09-13T18:35:39.273Z,98380.47
2022-09-13T18:38:41.727Z,98391.25
2022-09-13T18:41:45.149Z,98395.72
2022-09-13T18:44:46.661Z,98396.81
2022-09-13T18:47:48.178Z,98397.91
2022-09-13T18:50:49.809Z,98394.56
2022-09-13T18:53:51.608Z,98395.72
2022-09-13T18:56:53.547Z,98393.81
2022-09-13T18:59:57.239Z,98392.13
2022-09-13T19:03:11.840Z,98395.06
2022-09-13T19:06:18.519Z,98392.66
2022-09-13T19:09:20.998Z,98393.03
2022-09-13T19:12:22.704Z,98394.38
2022-09-13T19:15:24.223Z,98395.53
2022-09-13T19:18:25.958Z,98400.09
2022-09-13T19:21:29.610Z,98403.06
2022-09-13T19:24:31.183Z,98405.53
2022-09-13T19:27:32.786Z,98403.06
2022-09-13T19:30:34.815Z,98399.16
2022-09-13T19:33:36.875Z,98397.13
2022-09-13T19:36:39.352Z,98397.63
2022-09-13T19:39:40.999Z,98395.59
2022-09-13T19:42:42.567Z,98396.69
2022-09-13T19:45:44.149Z,98390.69
2022-09-13T19:48:46.691Z,98389.41
2022-09-13T19:51:51.940Z,98392.91
2022-09-13T19:54:56.292Z,98392.31
2022-09-13T19:57:58.046Z,98382.03
2022-09-13T20:01:10.272Z,98380.16
2022-09-13T20:04:13.152Z,98393.25
2022-09-13T20:07:14.846Z,98382.84
2022-09-13T20:10:16.455Z,98385.06
2022-09-13T20:13:19.578Z,98388.69
2022-09-13T20:16:25.029Z,98393.06
2022-09-13T20:19:46.361Z,98382.47
2022-09-13T20:22:48.671Z,98381.84
2022-09-13T20:25:50.508Z,98382.31
2022-09-13T20:29:00.101Z,98379.31
2022-09-13T20:32:02.297Z,98377.25
2022-09-13T20:35:05.242Z,98378.97
2022-09-13T20:38:07.122Z,98387.19
2022-09-13T20:41:10.609Z,98378.00
2022-09-13T20:44:12.314Z,98380.63
2022-09-13T20:47:13.839Z,98381.50
2022-09-13T20:50:15.466Z,98372.97
2022-09-13T20:53:17.036Z,98366.59
2022-09-13T20:56:18.759Z,98376.34
2022-09-13T20:59:21.266Z,98374.88
2022-09-13T21:02:22.828Z,98378.44
2022-09-13T21:05:24.410Z,98372.03
2022-09-13T21:08:41.327Z,98370.63
2022-09-13T21:11:43.986Z,98367.16
2022-09-13T21:14:46.373Z,98366.84
2022-09-13T21:17:47.934Z,98359.94
2022-09-13T21:20:56.336Z,98364.44
2022-09-13T21:23:58.582Z,98363.28
2022-09-13T21:27:00.268Z,98359.75
2022-09-13T21:30:02.153Z,98363.94
2022-09-13T21:33:03.741Z,98359.00
2022-09-13T21:36:05.629Z,98362.56
2022-09-13T21:39:07.204Z,98365.56
2022-09-13T21:42:09.028Z,98361.13
2022-09-13T21:45:10.709Z,98358.25
2022-09-13T21:48:14.189Z,98360.59
2022-09-13T21:51:17.017Z,98349.94
2022-09-13T21:54:19.130Z,98349.44
2022-09-13T21:57:20.812Z,98349.34
2022-09-13T22:00:23.320Z,98345.28
2022-09-13T22:03:24.826Z,98347.03
2022-09-13T22:06:30.198Z,98340.72
2022-09-13T22:09:34.346Z,98339.34
2022-09-13T22:12:36.053Z,98332.56
2022-09-13T22:15:37.592Z,98332.06
2022-09-13T22:18:39.354Z,98329.19
2022-09-13T22:21:42.726Z,98334.38
2022-09-13T22:24:46.144Z,98331.22
2022-09-13T22:27:47.702Z,98332.13
2022-09-13T22:30:49.386Z,98325.81
2022-09-13T22:33:51.594Z,98324.69
2022-09-13T22:36:54.435Z,98316.66
2022-09-13T22:39:59.320Z,98316.38
2022-09-13T22:43:00.910Z,98315.22
2022-09-13T22:46:06.687Z,98313.06
2022-09-13T22:49:09.093Z,98315.13
2022-09-13T22:52:11.295Z,98303.34
2022-09-13T22:55:12.847Z,98298.78
2022-09-13T22:58:14.731Z,98300.63
2022-09-13T23:01:17.328Z,98302.50
2022-09-13T23:04:18.970Z,98297.34
2022-09-13T23:07:20.526Z,98300.31
2022-09-13T23:10:22.065Z,98297.88
2022-09-13T23:13:23.724Z,98300.25
2022-09-13T23:16:29.229Z,98296.34
2022-09-13T23:19:30.838Z,98293.66
2022-09-13T23:22:32.446Z,98297.31
2022-09-13T23:25:34.119Z,98289.91
2022-09-13T23:28:36.208Z,98292.38
2022-09-13T23:31:40.757Z,98296.72
2022-09-13T23:34:42.518Z,98296.06
2022-09-13T23:37:47.973Z,98299.31
2022-09-13T23:40:49.498Z,98293.69
2022-09-13T23:43:51.177Z,98294.09
2022-09-13T23:46:52.673Z,98293.56
2022-09-13T23:49:54.231Z,98286.38
2022-09-13T23:52:55.827Z,98284.16
2022-09-13T23:55:57.399Z,98283.56
2022-09-13T23:58:59.474Z,98281.69
